Terminal Aerodrome Forecast
Issued by NWS

Home | Current Version | Previous Version | Text Only | Print | Product List | Glossary On
Versions: 1 2 3 4 5 6 7 8 9 10 11 12 13 14 15 16 17 18 19
319
FTUS46 KPDT 181120
TAFALW
TAF
KALW 181120Z 1812/1912 19008KT P6SM BKN050 OVC250
     FM182100 20006KT P6SM FEW060 BKN250
     FM190500 15006KT P6SM SCT250=

USA.gov is the U.S. government's official web portal to all federal, state and local government web resources and services.